Time;durP1;ratioP1;P1;durP2;ratioP2;P2;SDS_P1;SDS_P2;PMS_P1;PMS_P2;Temp;Humidity;BMP_temperature;BMP_pressure;BME280_temperature;BME280_humidity;BME280_pressure;Samples;Min_cycle;Max_cycle;Signal;HPM_P1;HPM_P2
2022/12/20 00:00:12;;;;;;;52.92;24.50;;;;;;;-1.84;95.53;96999.72;5056981;28;20256;-83
2022/12/20 00:02:39;;;;;;;48.97;22.52;;;;;;;-1.81;95.68;96999.28;5057870;28;20469;-83
2022/12/20 00:05:05;;;;;;;51.28;23.17;;;;;;;-1.82;95.60;97003.00;5058333;28;20060;-84
2022/12/20 00:07:32;;;;;;;47.65;23.65;;;;;;;-1.82;95.68;96997.66;5057620;28;20308;-83
2022/12/20 00:09:58;;;;;;;49.85;24.67;;;;;;;-1.81;95.69;96995.81;5058053;28;20049;-85
2022/12/20 00:12:26;;;;;;;47.95;22.58;;;;;;;-1.81;95.70;96985.13;5056804;28;20044;-83
2022/12/20 00:14:53;;;;;;;55.55;24.92;;;;;;;-1.83;95.71;96985.31;5049804;28;20044;-82
2022/12/20 00:17:19;;;;;;;46.58;23.02;;;;;;;-1.81;95.78;96995.81;5057240;28;20049;-83
2022/12/20 00:19:46;;;;;;;47.80;23.17;;;;;;;-1.79;95.67;97001.72;5057757;28;20053;-80
2022/12/20 00:22:12;;;;;;;47.67;23.38;;;;;;;-1.84;95.29;96997.03;5058665;28;20049;-85
2022/12/20 00:24:39;;;;;;;49.83;23.63;;;;;;;-1.86;95.36;97002.63;5078257;28;20103;-83
2022/12/20 00:27:05;;;;;;;52.42;23.02;;;;;;;-1.84;95.46;97005.88;5078201;28;20048;-84
2022/12/20 00:29:33;;;;;;;58.58;25.25;;;;;;;-1.96;95.45;97006.84;5078736;28;20048;-84
2022/12/20 00:32:00;;;;;;;47.13;23.02;;;;;;;-1.97;95.52;96992.69;5078673;28;20048;-84
2022/12/20 00:34:26;;;;;;;49.03;21.98;;;;;;;-1.96;95.61;96985.50;5075847;28;20045;-85
2022/12/20 00:36:53;;;;;;;54.35;22.88;;;;;;;-1.96;95.51;96975.63;5052822;28;20504;-81
2022/12/20 00:39:19;;;;;;;49.85;23.38;;;;;;;-1.98;95.55;96969.72;5055427;28;20632;-81
2022/12/20 00:41:45;;;;;;;52.22;23.25;;;;;;;-2.05;95.60;96957.47;5055737;28;20045;-83
2022/12/20 00:44:12;;;;;;;49.72;23.27;;;;;;;-2.03;95.39;96958.88;5055258;28;20060;-82
2022/12/20 00:46:40;;;;;;;50.60;23.38;;;;;;;-2.06;95.46;96966.53;5055883;28;20321;-83
2022/12/20 00:49:07;;;;;;;51.15;24.17;;;;;;;-2.10;95.63;96968.81;5055784;28;20037;-82
2022/12/20 00:51:33;;;;;;;54.17;24.25;;;;;;;-2.17;96.04;96960.06;5055574;28;20071;-85
2022/12/20 00:54:00;;;;;;;51.85;23.85;;;;;;;-2.15;96.15;96963.31;5055222;28;20036;-84
2022/12/20 00:56:26;;;;;;;54.63;24.05;;;;;;;-2.16;95.86;96956.34;5055748;28;20045;-83
2022/12/20 00:58:53;;;;;;;54.70;24.25;;;;;;;-2.15;95.83;96957.97;5048210;28;20044;-85
2022/12/20 01:01:22;;;;;;;49.20;23.05;;;;;;;-2.16;96.06;96961.69;5055333;28;20076;-84
2022/12/20 01:03:51;;;;;;;54.03;22.77;;;;;;;-2.15;96.18;96960.66;5055511;28;20045;-83
2022/12/20 01:06:18;;;;;;;54.15;24.48;;;;;;;-2.12;95.97;96969.03;5055042;28;20048;-83
2022/12/20 01:08:45;;;;;;;49.67;23.30;;;;;;;-2.17;96.19;96962.75;5055332;28;20060;-81
2022/12/20 01:11:15;;;;;;;53.70;23.88;;;;;;;-2.15;96.20;96966.00;5055581;28;20052;-83
2022/12/20 01:13:44;;;;;;;46.67;23.65;;;;;;;-2.11;96.42;96969.84;5055924;28;20066;-86
2022/12/20 01:16:13;;;;;;;51.72;23.45;;;;;;;-2.08;96.36;96966.75;5055307;28;20052;-83
2022/12/20 01:18:40;;;;;;;52.67;24.35;;;;;;;-2.14;96.28;96967.63;5057957;28;20532;-82
2022/12/20 01:21:10;;;;;;;48.63;22.25;;;;;;;-2.10;96.17;96963.47;5058805;28;20055;-84
2022/12/20 01:23:36;;;;;;;46.03;22.30;;;;;;;-2.07;96.14;96963.03;5071173;28;20048;-83
2022/12/20 01:26:07;;;;;;;50.53;23.55;;;;;;;-2.06;96.06;96970.00;5078785;28;20045;-86
2022/12/20 01:28:36;;;;;;;50.25;23.98;;;;;;;-2.04;96.14;96962.56;5079325;28;20044;-84
2022/12/20 01:31:02;;;;;;;47.50;22.83;;;;;;;-2.00;95.94;96958.44;5078955;28;20049;-86
2022/12/20 01:33:29;;;;;;;48.38;22.55;;;;;;;-2.02;96.15;96954.38;5078465;28;20044;-82
2022/12/20 01:35:56;;;;;;;51.60;22.95;;;;;;;-1.98;96.25;96956.38;5079403;28;20052;-83
2022/12/20 01:38:24;;;;;;;47.20;20.92;;;;;;;-1.97;96.33;96955.31;5079091;28;20040;-83
2022/12/20 01:40:51;;;;;;;50.65;23.77;;;;;;;-1.96;96.26;96954.28;5079323;28;20044;-84
2022/12/20 01:43:19;;;;;;;49.50;22.48;;;;;;;-1.93;96.31;96953.00;5078785;28;20051;-83
2022/12/20 01:45:46;;;;;;;47.90;22.42;;;;;;;-1.91;96.22;96949.09;5079653;28;20513;-84
2022/12/20 01:48:16;;;;;;;44.17;20.52;;;;;;;-1.89;96.18;96949.66;5078145;28;20584;-84
2022/12/20 01:50:42;;;;;;;52.05;22.25;;;;;;;-1.87;96.18;96947.59;5078573;28;20041;-82
2022/12/20 01:53:10;;;;;;;41.80;20.38;;;;;;;-1.85;96.20;96948.19;5068592;28;20045;-85
2022/12/20 01:55:38;;;;;;;49.65;21.15;;;;;;;-1.84;96.09;96941.81;5059402;28;20049;-83
2022/12/20 01:58:08;;;;;;;46.28;20.60;;;;;;;-1.84;96.22;96947.13;5058772;28;20051;-83
2022/12/20 02:00:34;;;;;;;51.63;22.98;;;;;;;-1.79;95.93;96954.47;5059360;28;20429;-82
2022/12/20 02:03:05;;;;;;;41.22;20.25;;;;;;;-1.74;95.95;96951.13;5058610;28;20047;-87
2022/12/20 02:05:35;;;;;;;48.13;22.25;;;;;;;-1.74;96.13;96951.13;5058592;28;20429;-84
2022/12/20 02:08:02;;;;;;;43.40;19.73;;;;;;;-1.70;95.84;96955.00;5059392;28;20059;-84
2022/12/20 02:10:41;;;;;;;48.78;22.00;;;;;;;-1.68;95.84;96944.88;5058471;28;20073;-79
2022/12/20 02:13:19;;;;;;;43.55;20.63;;;;;;;-1.62;95.60;96952.84;5058918;28;20060;-83
2022/12/20 02:15:53;;;;;;;49.00;21.60;;;;;;;-1.61;95.66;96954.47;5058447;28;20532;-83
2022/12/20 02:18:23;;;;;;;46.42;22.33;;;;;;;-1.72;96.09;96938.38;5059173;28;20075;-83
2022/12/20 02:21:19;;;;;;;50.17;22.23;;;;;;;-1.74;95.90;96940.47;5058406;28;20048;-81
2022/12/20 02:24:28;;;;;;;45.47;21.33;;;;;;;-1.69;95.52;96937.94;5071965;28;20052;-82
2022/12/20 02:27:34;;;;;;;44.40;20.70;;;;;;;-1.68;95.35;96939.56;5041443;28;20557;-83
2022/12/20 02:30:09;;;;;;;46.35;21.88;;;;;;;-1.80;95.29;96947.50;5023543;28;20073;-82
2022/12/20 02:32:42;;;;;;;45.47;21.58;;;;;;;-1.74;95.46;96945.78;5016838;28;20601;-86
2022/12/20 02:35:12;;;;;;;44.90;21.83;;;;;;;-1.74;95.42;96941.25;5034888;28;20053;-83
2022/12/20 02:37:48;;;;;;;43.42;21.20;;;;;;;-1.75;95.29;96933.50;5060176;28;20044;-83
2022/12/20 02:40:17;;;;;;;47.28;20.55;;;;;;;-1.70;95.33;96941.63;5058872;28;20060;-84
2022/12/20 02:42:44;;;;;;;48.85;22.40;;;;;;;-1.72;95.40;96941.03;5059136;28;20140;-84
2022/12/20 02:45:15;;;;;;;44.60;22.23;;;;;;;-1.76;95.25;96932.69;5059596;28;20037;-84
2022/12/20 02:47:47;;;;;;;49.60;22.15;;;;;;;-1.72;95.50;96933.03;5060470;28;20045;-81
2022/12/20 02:50:18;;;;;;;53.22;23.58;;;;;;;-1.74;95.55;96938.59;5059713;28;20053;-83
2022/12/20 02:52:45;;;;;;;46.10;22.38;;;;;;;-1.74;95.53;96937.78;5064079;28;20048;-86
2022/12/20 02:55:12;;;;;;;49.05;23.33;;;;;;;-1.79;95.58;96926.97;5079233;28;20075;-83
2022/12/20 02:57:45;;;;;;;44.00;22.02;;;;;;;-1.78;95.51;96933.94;5079846;28;20045;-83
2022/12/20 03:00:16;;;;;;;47.60;22.55;;;;;;;-1.82;95.60;96949.59;5079372;28;20140;-83
2022/12/20 03:05:30;;;;;;;44.78;20.73;;;;;;;-1.78;95.60;96945.41;5079451;28;20052;-82
2022/12/20 03:07:56;;;;;;;48.20;22.08;;;;;;;-1.85;95.82;96929.50;5080568;28;20048;-83
2022/12/20 03:10:23;;;;;;;45.42;22.75;;;;;;;-1.84;95.83;96936.47;5076978;28;20128;-83
2022/12/20 03:12:50;;;;;;;47.58;22.65;;;;;;;-1.80;95.82;96936.84;5060524;28;20044;-83
2022/12/20 03:15:18;;;;;;;48.03;22.85;;;;;;;-1.75;95.59;96933.50;5060954;28;20045;-82
2022/12/20 03:17:44;;;;;;;47.83;22.60;;;;;;;-1.76;95.70;96926.53;5060970;28;20049;-82
2022/12/20 03:20:11;;;;;;;41.75;21.10;;;;;;;-1.76;95.59;96921.19;5059421;28;20041;-86
2022/12/20 03:22:38;;;;;;;47.38;22.60;;;;;;;-1.73;95.48;96910.84;5063761;28;20059;-83
2022/12/20 03:25:06;;;;;;;42.83;20.73;;;;;;;-1.71;95.57;96907.97;5078307;28;20532;-87
2022/12/20 03:27:33;;;;;;;51.78;23.65;;;;;;;-1.76;95.74;96910.50;5071143;28;20049;-84
2022/12/20 03:29:59;;;;;;;46.80;22.55;;;;;;;-1.75;95.56;96918.28;5062739;28;20041;-84
2022/12/20 03:32:27;;;;;;;51.30;23.73;;;;;;;-1.74;95.75;96935.13;5057895;28;20051;-82
2022/12/20 03:34:54;;;;;;;47.83;23.38;;;;;;;-1.76;95.65;96931.88;5062975;28;20036;-87
2022/12/20 03:37:20;;;;;;;49.30;22.75;;;;;;;-1.78;95.74;96939.28;5060284;28;20044;-84
2022/12/20 03:39:47;;;;;;;48.58;23.23;;;;;;;-1.80;95.61;96926.16;5058656;28;20509;-84
2022/12/20 03:42:13;;;;;;;42.80;21.67;;;;;;;-1.78;95.39;96907.22;5057274;28;20330;-85
2022/12/20 03:44:40;;;;;;;43.67;21.08;;;;;;;-1.78;95.40;96904.56;5058812;28;20413;-85
2022/12/20 03:47:06;;;;;;;48.63;23.25;;;;;;;-1.77;95.22;96908.88;5058138;28;20445;-86
2022/12/20 03:49:34;;;;;;;46.80;22.40;;;;;;;-1.73;95.36;96899.38;5058117;28;20044;-85
2022/12/20 03:52:01;;;;;;;47.78;21.88;;;;;;;-1.77;95.27;96901.69;5053274;28;20046;-87
2022/12/20 03:54:27;;;;;;;46.85;22.73;;;;;;;-1.80;95.34;96893.31;5057942;28;20045;-84
2022/12/20 03:56:54;;;;;;;51.25;23.58;;;;;;;-1.85;95.25;96889.47;5049321;28;20131;-84
2022/12/20 03:59:20;;;;;;;48.80;23.23;;;;;;;-1.87;95.32;96882.72;5056968;28;20505;-83
2022/12/20 04:01:47;;;;;;;45.97;21.92;;;;;;;-1.84;95.25;96871.59;5057497;28;20076;-84
2022/12/20 04:04:14;;;;;;;43.72;20.88;;;;;;;-1.84;95.44;96876.91;5056888;28;20067;-85
2022/12/20 04:06:42;;;;;;;49.75;22.90;;;;;;;-1.83;95.43;96875.88;5057465;28;20052;-84
2022/12/20 04:09:09;;;;;;;51.90;23.67;;;;;;;-1.79;95.45;96882.41;5057344;28;20049;-82
2022/12/20 04:11:35;;;;;;;43.60;21.63;;;;;;;-1.81;95.39;96873.00;5057158;28;20064;-83
2022/12/20 04:14:02;;;;;;;48.35;22.13;;;;;;;-1.84;95.59;96869.72;5058017;28;20041;-85
2022/12/20 04:16:30;;;;;;;46.47;21.58;;;;;;;-1.78;95.77;96877.88;5057310;28;20056;-84
2022/12/20 04:18:56;;;;;;;45.45;23.10;;;;;;;-1.77;95.56;96879.53;5057615;28;20048;-83
2022/12/20 04:21:24;;;;;;;43.85;20.85;;;;;;;-1.77;95.58;96877.66;5057656;28;20493;-82
2022/12/20 04:23:52;;;;;;;47.63;22.27;;;;;;;-1.75;95.72;96885.44;5071313;28;20047;-84
2022/12/20 04:26:19;;;;;;;46.72;21.38;;;;;;;-1.72;95.77;96884.97;5077598;28;20052;-84
2022/12/20 04:28:45;;;;;;;41.22;20.50;;;;;;;-1.70;95.67;96890.91;5063657;28;20053;-83
2022/12/20 04:31:12;;;;;;;48.53;22.80;;;;;;;-1.68;95.95;96892.28;5057582;28;20041;-85
2022/12/20 04:33:39;;;;;;;45.90;21.52;;;;;;;-1.60;95.76;96893.84;5057543;28;20053;-84
2022/12/20 04:36:06;;;;;;;43.58;21.40;;;;;;;-1.59;95.88;96901.63;5057800;28;20041;-85
2022/12/20 04:38:33;;;;;;;42.17;20.58;;;;;;;-1.55;95.56;96896.66;5055289;28;20041;-83
2022/12/20 04:41:00;;;;;;;45.90;21.42;;;;;;;-1.52;95.74;96901.53;5056636;28;20045;-84
2022/12/20 04:43:27;;;;;;;46.72;21.58;;;;;;;-1.49;95.61;96901.06;5055314;28;20040;-84
2022/12/20 04:45:56;;;;;;;46.30;21.02;;;;;;;-1.51;95.44;96897.00;5048063;28;20048;-86
2022/12/20 04:48:24;;;;;;;44.75;22.02;;;;;;;-1.59;95.84;96890.13;5055117;28;20049;-85
2022/12/20 04:50:51;;;;;;;47.42;22.25;;;;;;;-1.61;95.73;96892.22;5055683;28;20040;-84
2022/12/20 04:56:03;;;;;;;48.97;21.73;;;;;;;-1.67;95.99;96896.63;5052942;28;20048;-85
2022/12/20 04:58:30;;;;;;;47.25;21.25;;;;;;;-1.68;95.87;96883.47;5060579;28;20045;-84
2022/12/20 05:00:57;;;;;;;50.63;23.20;;;;;;;-1.70;96.00;96882.91;5056281;28;20041;-83
2022/12/20 05:03:26;;;;;;;46.47;21.92;;;;;;;-1.73;95.93;96883.34;5056506;28;20124;-83
2022/12/20 05:05:53;;;;;;;47.42;22.58;;;;;;;-1.76;96.18;96891.81;5056154;28;20056;-83
2022/12/20 05:08:19;;;;;;;53.70;23.80;;;;;;;-1.80;96.08;96888.78;5056283;28;20416;-82
2022/12/20 05:10:47;;;;;;;54.67;24.00;;;;;;;-1.81;96.18;96883.69;5056911;28;20049;-85
2022/12/20 05:13:15;;;;;;;47.95;23.48;;;;;;;-1.83;95.98;96862.53;5056454;28;20056;-84
2022/12/20 05:15:42;;;;;;;45.97;22.80;;;;;;;-1.86;96.00;96858.47;5056849;28;20059;-84
2022/12/20 05:18:09;;;;;;;48.10;22.98;;;;;;;-1.84;95.99;96853.69;5057613;28;20045;-86
2022/12/20 05:20:35;;;;;;;50.08;22.52;;;;;;;-1.86;95.89;96842.44;5058023;28;20056;-83
2022/12/20 05:28:34;;;;;;;45.38;22.10;;;;;;;-1.95;96.23;96821.66;5060149;28;20067;-84
2022/12/20 05:31:01;;;;;;;49.95;23.08;;;;;;;-1.96;96.39;96825.34;5056755;28;20048;-82
2022/12/20 05:33:28;;;;;;;51.40;23.23;;;;;;;-1.95;96.42;96825.13;5056663;28;20052;-82
2022/12/20 05:35:54;;;;;;;45.33;21.85;;;;;;;-1.90;96.54;96819.91;5057504;28;20064;-82
2022/12/20 05:38:22;;;;;;;44.67;21.63;;;;;;;-1.89;96.55;96821.53;5057905;28;20041;-84
2022/12/20 05:40:50;;;;;;;48.55;23.90;;;;;;;-1.87;96.45;96826.66;5056800;28;20131;-83
2022/12/20 05:43:18;;;;;;;46.30;22.85;;;;;;;-1.88;96.66;96822.34;5057505;28;20047;-83
2022/12/20 05:45:47;;;;;;;49.00;23.77;;;;;;;-1.84;96.71;96829.69;5071280;28;20056;-84
2022/12/20 05:48:15;;;;;;;51.85;25.52;;;;;;;-1.84;96.71;96813.66;5058136;28;20733;-83
2022/12/20 05:50:42;;;;;;;50.58;23.65;;;;;;;-1.81;96.72;96814.28;5071953;28;20119;-83
2022/12/20 05:53:09;;;;;;;46.35;21.55;;;;;;;-1.81;96.72;96815.09;5067699;28;20045;-81
2022/12/20 05:55:36;;;;;;;47.67;22.35;;;;;;;-1.82;96.87;96820.66;5049583;28;20053;-84
2022/12/20 05:58:02;;;;;;;47.00;22.17;;;;;;;-1.81;96.74;96808.94;5058627;28;20060;-83
2022/12/20 06:00:29;;;;;;;45.00;21.25;;;;;;;-1.79;96.83;96814.84;5059125;28;20068;-83
2022/12/20 06:02:57;;;;;;;50.60;21.63;;;;;;;-1.78;97.03;96821.81;5058037;28;20049;-83
2022/12/20 06:05:23;;;;;;;50.75;21.27;;;;;;;-1.80;97.13;96813.22;5056773;28;20051;-84
2022/12/20 06:07:50;;;;;;;48.65;22.63;;;;;;;-1.75;97.04;96806.16;5058666;28;20041;-83
2022/12/20 06:10:17;;;;;;;44.95;21.35;;;;;;;-1.69;97.01;96804.41;5057935;28;20041;-83
2022/12/20 06:12:43;;;;;;;43.65;21.73;;;;;;;-1.70;96.88;96794.78;5059241;28;20055;-83
2022/12/20 06:15:12;;;;;;;45.20;21.35;;;;;;;-1.68;96.92;96811.38;5058573;28;20522;-84
2022/12/20 06:17:38;;;;;;;45.92;22.30;;;;;;;-1.71;96.91;96807.31;5059618;28;20487;-86
2022/12/20 06:20:08;;;;;;;48.58;22.05;;;;;;;-1.73;96.79;96808.59;5059015;28;20036;-83
2022/12/20 06:22:36;;;;;;;42.33;20.65;;;;;;;-1.76;96.78;96799.19;5064503;28;20037;-87
2022/12/20 06:25:03;;;;;;;45.10;22.10;;;;;;;-1.76;96.73;96803.72;5078935;28;20047;-86
2022/12/20 06:27:30;;;;;;;45.50;20.98;;;;;;;-1.74;96.73;96798.94;5079256;28;20048;-83
2022/12/20 06:29:56;;;;;;;39.53;19.92;;;;;;;-1.74;96.82;96793.63;5078841;28;20524;-82
2022/12/20 06:32:23;;;;;;;42.65;20.25;;;;;;;-1.73;96.71;96804.06;5080208;28;20044;-84
2022/12/20 06:34:51;;;;;;;46.78;21.77;;;;;;;-1.74;96.73;96802.44;5080983;28;20041;-84
2022/12/20 06:37:19;;;;;;;39.92;20.25;;;;;;;-1.68;96.74;96800.69;5079295;28;20037;-84
2022/12/20 06:39:45;;;;;;;47.67;21.75;;;;;;;-1.65;96.71;96805.59;5079873;28;20052;-80
2022/12/20 06:42:12;;;;;;;42.20;20.48;;;;;;;-1.60;96.62;96814.53;5079057;28;20041;-84
2022/12/20 06:44:38;;;;;;;44.95;21.50;;;;;;;-1.54;96.52;96818.16;5080537;28;20052;-83
2022/12/20 06:47:05;;;;;;;46.22;21.92;;;;;;;-1.52;96.38;96832.06;5078589;28;20419;-83
2022/12/20 06:49:31;;;;;;;44.13;20.98;;;;;;;-1.49;96.36;96826.28;5078722;28;20040;-86
2022/12/20 06:51:58;;;;;;;46.78;23.00;;;;;;;-1.45;96.40;96835.47;5077811;28;20531;-83
2022/12/20 06:54:26;;;;;;;50.22;22.35;;;;;;;-1.41;96.26;96831.31;5053934;28;20115;-86
2022/12/20 06:56:52;;;;;;;47.25;22.75;;;;;;;-1.37;96.52;96839.66;5054684;28;20045;-84
2022/12/20 06:59:19;;;;;;;48.17;22.98;;;;;;;-1.38;96.56;96830.03;5053891;28;20068;-85
2022/12/20 07:01:45;;;;;;;47.67;23.02;;;;;;;-1.51;97.01;96825.72;5054759;28;20489;-79
2022/12/20 07:04:12;;;;;;;48.88;23.15;;;;;;;-1.42;97.15;96816.31;5054672;28;20396;-85
2022/12/20 07:06:38;;;;;;;50.20;22.73;;;;;;;-1.38;97.21;96812.13;5054959;28;20045;-83
2022/12/20 07:09:05;;;;;;;48.38;23.20;;;;;;;-1.48;97.17;96811.88;5050716;28;20544;-77
2022/12/20 07:11:32;;;;;;;46.38;22.75;;;;;;;-1.41;97.57;96809.94;5049505;28;20056;-78
2022/12/20 07:13:59;;;;;;;41.80;21.98;;;;;;;-1.36;97.36;96810.06;5049149;28;20135;-80
2022/12/20 07:16:26;;;;;;;47.58;22.60;;;;;;;-1.43;97.50;96803.19;5048931;28;20053;-79
2022/12/20 07:18:54;;;;;;;51.30;23.05;;;;;;;-1.41;97.75;96801.94;5049392;28;20406;-79
2022/12/20 07:21:21;;;;;;;46.92;22.08;;;;;;;-1.37;97.40;96792.38;5054405;28;20077;-84
2022/12/20 07:23:48;;;;;;;46.47;22.17;;;;;;;-1.30;97.13;96807.50;5067154;28;20052;-84
2022/12/20 07:26:15;;;;;;;48.03;22.23;;;;;;;-1.27;97.22;96807.03;5073183;28;20417;-83
2022/12/20 07:28:43;;;;;;;48.83;22.40;;;;;;;-1.24;97.18;96807.38;5074291;28;20060;-85
2022/12/20 07:31:10;;;;;;;44.78;21.88;;;;;;;-1.25;97.25;96810.28;5072385;28;20044;-83
2022/12/20 07:33:37;;;;;;;47.65;22.15;;;;;;;-1.22;97.14;96809.81;5058513;28;20056;-84
2022/12/20 07:36:06;;;;;;;48.47;23.13;;;;;;;-1.20;97.15;96802.38;5057703;28;20412;-86
2022/12/20 07:38:32;;;;;;;47.30;23.60;;;;;;;-1.21;97.15;96798.91;5053855;28;20412;-85
2022/12/20 07:40:59;;;;;;;47.55;22.90;;;;;;;-1.20;97.25;96802.38;5053453;28;20376;-83
2022/12/20 07:43:25;;;;;;;46.97;23.05;;;;;;;-1.18;97.23;96800.31;5054113;28;20136;-85
2022/12/20 07:45:56;;;;;;;45.83;22.88;;;;;;;-1.11;96.97;96809.81;5053794;28;20541;-86
2022/12/20 07:48:23;;;;;;;43.65;21.80;;;;;;;-1.07;96.52;96812.84;5049904;28;20127;-83
2022/12/20 07:50:52;;;;;;;52.55;23.88;;;;;;;-1.10;96.61;96808.78;5067489;28;20037;-81
2022/12/20 07:53:20;;;;;;;50.95;23.77;;;;;;;-1.15;96.77;96789.13;5064648;28;20290;-81
2022/12/20 07:55:47;;;;;;;47.22;23.33;;;;;;;-1.03;97.05;96803.31;5058034;28;20055;-82
2022/12/20 07:58:16;;;;;;;43.47;21.52;;;;;;;-0.96;96.90;96814.69;5058098;28;20045;-82
2022/12/20 08:00:43;;;;;;;44.38;20.92;;;;;;;-0.93;96.65;96813.44;5059215;28;20075;-83
2022/12/20 08:03:17;;;;;;;47.50;21.63;;;;;;;-0.88;96.63;96813.53;5058261;28;20045;-85
2022/12/20 08:05:47;;;;;;;48.25;22.95;;;;;;;-0.88;96.41;96817.03;5057853;28;20055;-83
2022/12/20 08:08:14;;;;;;;45.83;23.05;;;;;;;-0.81;96.56;96823.06;5058049;28;20052;-83
2022/12/20 08:10:41;;;;;;;45.88;22.48;;;;;;;-0.75;96.21;96820.50;5058428;28;20041;-83
2022/12/20 08:13:08;;;;;;;41.35;20.13;;;;;;;-0.70;96.29;96817.94;5057490;28;20045;-83
2022/12/20 08:15:36;;;;;;;43.92;21.38;;;;;;;-0.66;96.24;96821.78;5058352;28;20040;-82
2022/12/20 08:18:02;;;;;;;44.45;22.10;;;;;;;-0.66;96.20;96813.75;5059018;28;20051;-85
2022/12/20 08:20:30;;;;;;;47.58;22.88;;;;;;;-0.59;95.87;96811.75;5058487;28;20045;-82
2022/12/20 08:22:56;;;;;;;47.20;23.08;;;;;;;-0.54;95.69;96817.19;5065467;28;20051;-85
2022/12/20 08:25:23;;;;;;;41.60;20.83;;;;;;;-0.48;95.69;96816.25;5078662;28;20048;-82
2022/12/20 08:27:50;;;;;;;43.70;21.35;;;;;;;-0.42;95.38;96809.94;5078761;28;20044;-85
2022/12/20 08:30:17;;;;;;;46.25;22.80;;;;;;;-0.39;95.31;96812.16;5078970;28;20078;-83
2022/12/20 08:32:43;;;;;;;43.42;21.67;;;;;;;-0.36;95.19;96810.91;5079865;28;20048;-83
2022/12/20 08:35:11;;;;;;;44.35;21.83;;;;;;;-0.32;95.23;96798.63;5079774;28;20041;-82
2022/12/20 08:37:39;;;;;;;43.67;21.52;;;;;;;-0.30;95.25;96800.03;5080173;28;20044;-82
2022/12/20 08:40:08;;;;;;;44.15;21.05;;;;;;;-0.28;94.87;96802.47;5080475;28;20067;-83
2022/12/20 08:42:34;;;;;;;41.17;21.15;;;;;;;-0.21;94.86;96813.03;5080786;28;20040;-83
2022/12/20 08:45:01;;;;;;;43.90;22.20;;;;;;;-0.13;94.70;96815.34;5081792;28;20040;-82
2022/12/20 08:47:29;;;;;;;45.05;21.38;;;;;;;-0.10;94.51;96815.69;5080115;28;20048;-82
2022/12/20 08:49:55;;;;;;;44.50;21.40;;;;;;;-0.05;94.23;96820.34;5078069;28;20512;-82
2022/12/20 08:52:22;;;;;;;41.95;21.27;;;;;;;-0.06;94.38;96816.00;5073778;28;20053;-83
2022/12/20 08:54:50;;;;;;;41.83;21.95;;;;;;;-0.06;94.26;96813.31;5057569;28;20044;-86
2022/12/20 08:57:17;;;;;;;48.50;22.48;;;;;;;-0.05;94.08;96809.63;5057299;28;20044;-86
2022/12/20 08:59:43;;;;;;;44.25;21.30;;;;;;;0.01;94.20;96816.69;5057230;28;20595;-82
2022/12/20 09:02:10;;;;;;;47.97;23.17;;;;;;;0.06;93.99;96816.78;5057665;28;20440;-83
2022/12/20 09:04:36;;;;;;;46.90;23.85;;;;;;;0.00;93.88;96817.75;5066864;28;20064;-83
2022/12/20 09:07:03;;;;;;;44.95;22.10;;;;;;;0.05;93.63;96823.16;5077416;28;20040;-86
2022/12/20 09:09:30;;;;;;;49.35;23.95;;;;;;;0.06;93.58;96821.34;5077927;28;20044;-82
2022/12/20 09:11:58;;;;;;;47.35;24.10;;;;;;;-0.32;93.50;96820.84;5077484;28;20440;-80
2022/12/20 09:14:24;;;;;;;45.33;24.17;;;;;;;-0.24;94.39;96810.84;5077445;28;20041;-83
2022/12/20 09:16:51;;;;;;;46.60;22.92;;;;;;;-0.06;93.88;96818.69;5077856;28;20416;-83
2022/12/20 09:19:17;;;;;;;45.03;22.95;;;;;;;-0.02;93.37;96814.47;5077835;28;20047;-81
2022/12/20 09:21:44;;;;;;;45.70;22.77;;;;;;;-0.03;93.41;96802.97;5077514;28;20257;-84
2022/12/20 09:24:10;;;;;;;51.55;24.92;;;;;;;-0.03;92.36;96812.88;5059281;28;20053;-81
2022/12/20 09:26:37;;;;;;;48.33;23.73;;;;;;;-0.08;92.67;96802.06;5057931;28;20044;-85
2022/12/20 09:29:05;;;;;;;50.30;23.92;;;;;;;-0.02;92.75;96801.09;5058078;28;20052;-83
2022/12/20 09:31:31;;;;;;;47.72;23.73;;;;;;;0.08;92.55;96782.53;5058223;28;20067;-83
2022/12/20 09:33:59;;;;;;;44.80;23.23;;;;;;;0.11;92.78;96786.63;5058575;28;20041;-83
2022/12/20 09:36:28;;;;;;;47.85;24.02;;;;;;;0.13;92.84;96774.59;5057009;28;20041;-80
2022/12/20 09:38:55;;;;;;;45.42;22.67;;;;;;;0.10;92.57;96772.38;5049842;28;20044;-84
2022/12/20 09:41:35;;;;;;;43.22;22.17;;;;;;;0.18;92.88;96766.66;5060305;28;20049;-84
2022/12/20 09:44:11;;;;;;;46.97;23.30;;;;;;;0.11;92.53;96760.66;5054745;28;20044;-82
2022/12/20 09:46:39;;;;;;;40.83;22.00;;;;;;;0.20;92.77;96769.06;5061646;28;20057;-83
2022/12/20 09:49:05;;;;;;;47.55;23.45;;;;;;;0.24;92.92;96762.19;5060586;28;20056;-81
2022/12/20 09:51:47;;;;;;;42.78;22.63;;;;;;;0.29;92.52;96762.28;5061377;28;20072;-81
2022/12/20 09:54:22;;;;;;;44.28;22.33;;;;;;;0.30;92.16;96753.19;5077358;28;20040;-81
2022/12/20 09:56:59;;;;;;;41.05;22.35;;;;;;;0.37;93.13;96742.31;5080434;28;20505;-84
2022/12/20 09:59:28;;;;;;;43.65;21.50;;;;;;;0.37;93.43;96745.00;5081007;28;20528;-82
2022/12/20 10:01:54;;;;;;;46.83;23.40;;;;;;;0.45;93.82;96744.59;5059772;28;20071;-84
2022/12/20 10:04:23;;;;;;;50.67;23.88;;;;;;;0.50;93.72;96744.66;5080344;28;20041;-81
2022/12/20 10:07:05;;;;;;;49.30;23.65;;;;;;;0.56;94.04;96735.66;5081508;28;20055;-81
2022/12/20 10:10:02;;;;;;;43.00;22.80;;;;;;;0.59;93.73;96729.81;5081257;28;20044;-79
2022/12/20 10:12:39;;;;;;;43.20;21.38;;;;;;;0.62;93.98;96723.13;5076494;28;20068;-78
2022/12/20 10:15:19;;;;;;;45.40;22.38;;;;;;;0.60;94.19;96720.72;5080667;28;20048;-83
2022/12/20 10:18:03;;;;;;;43.78;23.67;;;;;;;0.64;94.71;96719.16;5080938;28;20056;-81
2022/12/20 10:20:45;;;;;;;44.80;23.45;;;;;;;0.76;94.44;96727.91;5081078;28;20055;-81
2022/12/20 10:23:22;;;;;;;44.95;21.60;;;;;;;0.79;94.59;96718.56;5070217;28;20048;-82
2022/12/20 10:25:50;;;;;;;46.58;22.15;;;;;;;0.84;94.80;96721.34;5060949;28;20102;-81
2022/12/20 10:28:19;;;;;;;42.13;22.67;;;;;;;0.94;95.08;96708.06;5061042;28;20049;-82
2022/12/20 10:30:47;;;;;;;44.95;22.73;;;;;;;1.06;95.04;96717.88;5061033;28;20056;-81
2022/12/20 10:33:19;;;;;;;41.88;21.77;;;;;;;1.14;95.34;96720.91;5060077;28;20044;-79
2022/12/20 10:35:46;;;;;;;44.38;22.13;;;;;;;1.18;95.44;96719.34;5060404;28;20049;-79
2022/12/20 10:38:16;;;;;;;44.25;22.58;;;;;;;1.18;95.50;96708.63;5060105;28;20059;-83
2022/12/20 10:40:45;;;;;;;40.00;21.23;;;;;;;1.22;95.90;96701.72;5060379;28;20049;-81
2022/12/20 10:43:17;;;;;;;40.63;20.65;;;;;;;1.26;95.83;96699.34;5059084;28;20045;-82
2022/12/20 10:45:45;;;;;;;42.40;22.00;;;;;;;1.17;95.78;96693.59;5058784;28;20049;-81
2022/12/20 10:48:29;;;;;;;42.30;21.40;;;;;;;1.22;96.13;96690.97;5058395;28;20488;-81
2022/12/20 10:50:57;;;;;;;38.30;19.83;;;;;;;1.25;96.36;96687.81;5059073;28;20049;-80
2022/12/20 10:53:26;;;;;;;37.63;20.40;;;;;;;1.26;96.43;96692.09;5069128;28;20609;-81
2022/12/20 10:55:53;;;;;;;40.28;21.52;;;;;;;1.25;96.83;96679.75;5071758;28;20498;-82
2022/12/20 10:58:32;;;;;;;41.28;21.40;;;;;;;1.22;97.00;96664.16;5061123;28;20067;-83
2022/12/20 11:01:11;;;;;;;42.80;22.30;;;;;;;1.24;97.18;96667.38;5051024;28;20055;-84
2022/12/20 11:03:50;;;;;;;49.97;24.13;;;;;;;1.26;97.57;96662.59;5057190;28;20418;-84
2022/12/20 11:06:19;;;;;;;44.33;23.92;;;;;;;1.25;97.13;96655.63;5057844;28;20429;-82
2022/12/20 11:08:47;;;;;;;46.90;24.15;;;;;;;1.18;97.06;96654.97;5058020;28;20055;-82
2022/12/20 11:11:17;;;;;;;45.97;24.27;;;;;;;1.15;96.81;96651.97;5057390;28;20041;-84
2022/12/20 11:13:45;;;;;;;48.33;24.85;;;;;;;1.10;97.25;96650.06;5057951;28;20118;-82
2022/12/20 11:16:28;;;;;;;50.60;25.55;;;;;;;1.03;97.17;96639.50;5057583;28;20045;-84
2022/12/20 11:19:06;;;;;;;48.80;24.77;;;;;;;1.01;97.04;96630.91;5049905;28;20434;-84
2022/12/20 11:21:42;;;;;;;49.97;26.02;;;;;;;1.01;97.28;96624.75;5057362;28;20036;-82
2022/12/20 11:24:14;;;;;;;54.00;26.73;;;;;;;1.02;97.67;96623.69;5074417;28;20044;-85
2022/12/20 11:26:54;;;;;;;51.92;25.48;;;;;;;1.03;97.69;96618.06;5077680;28;20063;-83
2022/12/20 11:29:36;;;;;;;51.20;27.20;;;;;;;1.09;97.90;96612.75;5077895;28;20051;-83
2022/12/20 11:32:15;;;;;;;56.92;27.33;;;;;;;1.07;97.82;96602.28;5058125;28;20051;-84
2022/12/20 11:34:53;;;;;;;54.92;27.30;;;;;;;1.12;98.11;96605.03;5076548;28;20048;-80
2022/12/20 11:37:22;;;;;;;49.78;27.40;;;;;;;1.16;97.20;96608.81;5077151;28;20421;-82